Thunder radar more information blitzortung!


Radar de pluja more information rain snow radar


Visita la nostra xarxa de llocs de meteo:

Template documentation
and downloads

And another site



No particular awareness of the weather is required.    There are no Weather-warnings

Pagina Historial Weather Underground text

Diari Resum Juny 2, 2017 Unitats:  Imperial    Mètric   Tant
« Previous Dia
SegĂźent Dia »
Diari Setmana Mensual Anual Personalitzada
  Maxima: Minima: Media:
Temperatura: TemperatureC °F 15.4 °F 24.9 °F
Punt de rosada: DewpointC °F 9.5 °F 13.7 °F
Humitat: Humidity % 38 % 51 %
Wind Speed: WindSpeedKMH mph 0.0 mph 6.9 mph
RĂ fegues de vent: WindSpeedGustKMH mph - -
Vent:- - SSW
Pression baro: PressurehPa in 1014.8 in -
Precipitacions: 0.0 in    
Historical Graphs
 
 
Dades de taula per Juny 2, 2017
Temps Temperatura Punt de rosada Pression baro Vent Wind Speed RĂ fegues de vent Humitat Rainfall Rate (Hourly)
TemperatureC °F DewpointC °F PressurehPa in Calm     Humidity % HourlyPrecipMM in
00:01 19.6 °F 9.8 °F 1018.8 in Calm     53 % 0.0 in
00:06 19.5 °F 9.7 °F 1017.8 in Calm     53 % 0.0 in
00:11 19.3 °F 9.5 °F 1017.8 in Calm     53 % 0.0 in
00:15 17.0 °F 11.1 °F 1016.8 in Calm     68 % 0.0 in
00:16 19.2 °F 9.7 °F 1017.8 in Calm     54 % 0.0 in
00:25 17.0 °F 11.1 °F 1016.8 in NNW 1.6 mph 1.6 mph 68 % 0.0 in
00:35 16.8 °F 10.8 °F 1016.8 in Calm   3.2 mph 68 % 0.0 in
00:45 16.5 °F 10.8 °F 1016.8 in Calm   3.2 mph 69 % 0.0 in
00:55 16.2 °F 10.5 °F 1016.8 in Calm   3.2 mph 69 % 0.0 in
01:05 15.8 °F 10.1 °F 1016.8 in SW 1.6 mph 3.2 mph 69 % 0.0 in
01:15 15.6 °F 9.9 °F 1016.8 in WSW 3.2 mph 4.8 mph 69 % 0.0 in
01:25 15.4 °F 9.9 °F 1016.8 in SW 4.8 mph 4.8 mph 70 % 0.0 in
01:35 15.4 °F 10.4 °F 1016.8 in SW 1.6 mph 3.2 mph 72 % 0.0 in
01:45 15.5 °F 10.4 °F 1016.8 in SW 3.2 mph 3.2 mph 72 % 0.0 in
01:55 15.6 °F 10.6 °F 1016.8 in SW 3.2 mph 4.8 mph 72 % 0.0 in
02:05 15.7 °F 10.7 °F 1017.8 in SW 1.6 mph 3.2 mph 72 % 0.0 in
02:15 16.2 °F 11.2 °F 1017.8 in Calm   1.6 mph 72 % 0.0 in
02:25 16.7 °F 11.4 °F 1017.8 in Calm   1.6 mph 71 % 0.0 in
02:35 17.4 °F 11.9 °F 1017.8 in South 1.6 mph 3.2 mph 70 % 0.0 in
02:45 17.8 °F 11.8 °F 1017.8 in ENE 1.6 mph 3.2 mph 68 % 0.0 in
02:55 18.0 °F 12.0 °F 1017.8 in NE 3.2 mph 3.2 mph 68 % 0.0 in
03:05 18.2 °F 11.9 °F 1017.8 in ENE 3.2 mph 6.4 mph 67 % 0.0 in
03:15 18.6 °F 12.1 °F 1017.8 in ENE 3.2 mph 4.8 mph 66 % 0.0 in
03:25 19.0 °F 12.1 °F 1017.8 in NE 3.2 mph 3.2 mph 64 % 0.0 in
03:35 19.8 °F 12.6 °F 1017.8 in NNE 1.6 mph 3.2 mph 63 % 0.0 in
03:45 19.5 °F 12.0 °F 1017.8 in WSW 1.6 mph 4.8 mph 62 % 0.0 in
03:55 20.4 °F 12.9 °F 1017.8 in SSW 1.6 mph 3.2 mph 62 % 0.0 in
04:10 20.8 °F 13.0 °F 1017.8 in South 1.6 mph 4.8 mph 61 % 0.0 in
04:20 21.1 °F 13.1 °F 1017.8 in SW 3.2 mph 4.8 mph 60 % 0.0 in
04:30 21.7 °F 13.3 °F 1017.8 in SSW 4.8 mph 6.4 mph 59 % 0.0 in
04:40 22.5 °F 13.8 °F 1017.8 in SSW 1.6 mph 4.8 mph 58 % 0.0 in
04:50 22.9 °F 13.7 °F 1017.8 in SW 4.8 mph 4.8 mph 56 % 0.0 in
05:00 23.2 °F 13.9 °F 1017.8 in SW 1.6 mph 4.8 mph 56 % 0.0 in
05:10 23.6 °F 14.3 °F 1017.8 in SW 3.2 mph 9.7 mph 56 % 0.0 in
05:20 23.7 °F 14.4 °F 1017.8 in SW 3.2 mph 8.0 mph 56 % 0.0 in
10:21 23.7 °F 14.4 °F 1017.8 in WSW 5.6 mph 6.1 mph 56 % 0.0 in
10:26 23.8 °F 14.5 °F 1017.8 in SSW 5.3 mph 5.3 mph 56 % 0.0 in
10:31 23.8 °F 14.5 °F 1017.8 in West 7.4 mph 7.4 mph 56 % 0.0 in
10:36 23.9 °F 14.6 °F 1017.8 in SSW 7.9 mph 7.9 mph 56 % 0.0 in
10:41 24.2 °F 14.6 °F 1017.8 in SSW 7.6 mph 7.6 mph 55 % 0.0 in
10:46 24.6 °F 14.7 °F 1017.8 in South 9.3 mph 9.3 mph 54 % 0.0 in
10:51 24.6 °F 14.7 °F 1017.8 in ESE 5.6 mph 5.6 mph 54 % 0.0 in
10:56 25.2 °F 14.9 °F 1017.8 in WSW 3.7 mph 3.9 mph 53 % 0.0 in
11:01 25.9 °F 15.6 °F 1017.8 in SW 6.1 mph 6.1 mph 53 % 0.0 in
11:06 25.8 °F 15.2 °F 1016.8 in South 5.6 mph 5.6 mph 52 % 0.0 in
11:11 26.1 °F 15.2 °F 1016.8 in SSW 3.7 mph 3.7 mph 51 % 0.0 in
11:16 26.5 °F 15.6 °F 1016.8 in SSW 9.3 mph 9.3 mph 51 % 0.0 in
11:21 26.4 °F 15.4 °F 1016.8 in South 7.4 mph 7.4 mph 51 % 0.0 in
11:26 26.7 °F 15.4 °F 1016.8 in WSW 7.4 mph 7.4 mph 50 % 0.0 in
11:31 26.7 °F 15.4 °F 1016.8 in South 7.4 mph 7.4 mph 50 % 0.0 in
11:36 26.9 °F 15.6 °F 1016.8 in SSE 7.4 mph 7.4 mph 50 % 0.0 in
11:41 26.9 °F 15.3 °F 1016.8 in South 7.4 mph 7.4 mph 49 % 0.0 in
11:46 27.5 °F 15.5 °F 1016.8 in South 5.6 mph 5.6 mph 48 % 0.0 in
11:51 27.8 °F 15.4 °F 1015.8 in SSE 7.4 mph 7.4 mph 47 % 0.0 in
11:56 28.0 °F 15.6 °F 1015.8 in SW 3.7 mph 3.7 mph 47 % 0.0 in
12:01 27.9 °F 15.6 °F 1015.8 in SW 11.1 mph 11.1 mph 47 % 0.0 in
12:06 27.4 °F 14.8 °F 1016.8 in SW 14.8 mph 14.8 mph 46 % 0.0 in
12:11 27.5 °F 14.8 °F 1016.8 in SW 10.0 mph 10.0 mph 46 % 0.0 in
12:16 27.4 °F 14.4 °F 1016.8 in South 9.3 mph 9.3 mph 45 % 0.0 in
12:21 27.6 °F 14.6 °F 1016.8 in WSW 13.0 mph 13.0 mph 45 % 0.0 in
12:26 27.8 °F 14.8 °F 1016.8 in SSW 9.3 mph 9.3 mph 45 % 0.0 in
12:31 28.4 °F 15.3 °F 1016.8 in WSW 9.3 mph 9.3 mph 45 % 0.0 in
12:36 28.4 °F 15.3 °F 1016.8 in SSW 11.1 mph 11.1 mph 45 % 0.0 in
12:41 28.3 °F 14.9 °F 1016.8 in South 7.9 mph 7.9 mph 44 % 0.0 in
12:46 28.7 °F 15.2 °F 1016.8 in SW 10.3 mph 10.3 mph 44 % 0.0 in
12:51 28.5 °F 14.7 °F 1015.8 in WSW 11.9 mph 11.9 mph 43 % 0.0 in
12:56 28.7 °F 14.9 °F 1015.8 in WSW 13.0 mph 13.0 mph 43 % 0.0 in
13:01 29.2 °F 14.9 °F 1015.8 in SE 5.6 mph 5.6 mph 42 % 0.0 in
13:06 29.7 °F 15.4 °F 1015.8 in SW 5.8 mph 5.8 mph 42 % 0.0 in
13:07 29.7 °F 15.4 °F 1015.8 in South 7.4 mph 7.4 mph 42 % 0.0 in
13:12 30.4 °F 16.1 °F 1015.8 in SSE 5.6 mph 5.6 mph 42 % 0.0 in
13:17 30.7 °F 15.9 °F 1015.8 in SW 5.6 mph 5.6 mph 41 % 0.0 in
13:22 30.0 °F 15.7 °F 1015.8 in South 9.3 mph 9.3 mph 42 % 0.0 in
13:27 29.3 °F 15.4 °F 1015.8 in ESE 6.1 mph 6.1 mph 43 % 0.0 in
13:32 29.0 °F 15.5 °F 1015.8 in East 9.3 mph 9.3 mph 44 % 0.0 in
13:37 28.6 °F 15.5 °F 1015.8 in ESE 11.1 mph 11.1 mph 45 % 0.0 in
13:42 28.2 °F 15.2 °F 1015.8 in SE 14.8 mph 14.8 mph 45 % 0.0 in
13:47 27.8 °F 14.8 °F 1015.8 in SE 13.0 mph 13.0 mph 45 % 0.0 in
13:52 27.9 °F 15.2 °F 1015.8 in NE 9.3 mph 9.3 mph 46 % 0.0 in
13:57 27.9 °F 15.2 °F 1015.8 in WSW 13.0 mph 13.0 mph 46 % 0.0 in
14:02 28.5 °F 16.1 °F 1015.8 in SSE 5.6 mph 5.6 mph 47 % 0.0 in
14:07 28.4 °F 15.7 °F 1015.8 in East 7.4 mph 7.4 mph 46 % 0.0 in
14:12 28.5 °F 15.8 °F 1015.8 in ESE 9.3 mph 9.3 mph 46 % 0.0 in
14:17 28.5 °F 15.8 °F 1015.8 in SSE 9.3 mph 9.3 mph 46 % 0.0 in
14:22 29.5 °F 16.3 °F 1015.8 in South 11.1 mph 11.1 mph 45 % 0.0 in
14:27 30.0 °F 16.4 °F 1015.8 in SE 3.7 mph 3.7 mph 44 % 0.0 in
14:32 30.7 °F 17.1 °F 1015.8 in South 5.6 mph 5.6 mph 44 % 0.0 in
14:37 30.8 °F 17.1 °F 1015.8 in SSW 9.5 mph 9.5 mph 44 % 0.0 in
14:42 30.5 °F 16.5 °F 1015.8 in SW 9.3 mph 9.3 mph 43 % 0.0 in
14:47 30.3 °F 16.3 °F 1015.8 in South 9.3 mph 9.3 mph 43 % 0.0 in
14:52 30.6 °F 16.6 °F 1014.8 in West 9.3 mph 9.3 mph 43 % 0.0 in
14:57 30.6 °F 16.2 °F 1014.8 in SW 11.1 mph 11.1 mph 42 % 0.0 in
15:02 30.3 °F 15.6 °F 1014.8 in SW 9.7 mph 9.7 mph 41 % 0.0 in
15:07 30.4 °F 15.7 °F 1014.8 in WSW 11.1 mph 11.1 mph 41 % 0.0 in
15:12 31.0 °F 15.8 °F 1014.8 in WNW 7.4 mph 7.4 mph 40 % 0.0 in
15:17 31.1 °F 15.9 °F 1014.8 in SSW 5.6 mph 5.6 mph 40 % 0.0 in
15:22 30.4 °F 15.3 °F 1014.8 in South 13.0 mph 13.0 mph 40 % 0.0 in
15:27 31.0 °F 15.4 °F 1014.8 in SSW 5.8 mph 5.8 mph 39 % 0.0 in
15:32 30.4 °F 14.9 °F 1014.8 in West 14.8 mph 14.8 mph 39 % 0.0 in
15:37 30.2 °F 14.7 °F 1014.8 in WSW 13.0 mph 13.0 mph 39 % 0.0 in
15:42 30.5 °F 15.0 °F 1014.8 in SSW 9.3 mph 9.3 mph 39 % 0.0 in
15:47 30.3 °F 14.8 °F 1014.8 in SW 14.8 mph 14.8 mph 39 % 0.0 in
15:52 30.2 °F 14.3 °F 1014.8 in SW 14.8 mph 14.8 mph 38 % 0.0 in
15:57 30.0 °F 14.6 °F 1014.8 in West 11.1 mph 11.1 mph 39 % 0.0 in
16:02 30.4 °F 14.5 °F 1014.8 in South 5.6 mph 5.6 mph 38 % 0.0 in
16:07 30.5 °F 14.6 °F 1014.8 in SW 11.1 mph 11.1 mph 38 % 0.0 in
16:12 30.2 °F 14.3 °F 1014.8 in SSW 13.0 mph 13.0 mph 38 % 0.0 in
16:17 29.7 °F 13.9 °F 1014.8 in SW 13.0 mph 13.0 mph 38 % 0.0 in
16:22 29.8 °F 14.3 °F 1014.8 in West 9.3 mph 9.3 mph 39 % 0.0 in
16:27 29.3 °F 13.9 °F 1014.8 in South 11.1 mph 11.1 mph 39 % 0.0 in
16:28 29.3 °F 13.9 °F 1014.8 in SW 11.1 mph 11.1 mph 39 % 0.0 in
16:33 29.3 °F 13.9 °F 1014.8 in West 12.2 mph 12.2 mph 39 % 0.0 in
16:38 29.0 °F 13.7 °F 1014.8 in South 13.0 mph 13.0 mph 39 % 0.0 in
16:43 28.7 °F 13.8 °F 1014.8 in South 14.8 mph 14.8 mph 40 % 0.0 in
16:48 29.0 °F 13.7 °F 1014.8 in South 14.8 mph 14.8 mph 39 % 0.0 in
16:53 29.1 °F 13.7 °F 1014.8 in SSW 10.3 mph 10.3 mph 39 % 0.0 in
16:58 28.9 °F 13.9 °F 1014.8 in SW 17.5 mph 17.5 mph 40 % 0.0 in
17:03 28.7 °F 13.8 °F 1014.8 in WNW 14.8 mph 14.8 mph 40 % 0.0 in
17:08 28.7 °F 13.8 °F 1014.8 in SW 13.0 mph 13.0 mph 40 % 0.0 in
17:13 28.4 °F 13.5 °F 1014.8 in WSW 13.0 mph 13.0 mph 40 % 0.0 in
17:18 28.0 °F 13.2 °F 1014.8 in SSW 16.7 mph 16.7 mph 40 % 0.0 in
17:23 27.8 °F 13.3 °F 1014.8 in WSW 16.7 mph 16.7 mph 41 % 0.0 in
17:28 28.1 °F 14.0 °F 1014.8 in SW 7.4 mph 7.4 mph 42 % 0.0 in
17:33 28.4 °F 14.2 °F 1014.8 in South 10.3 mph 10.3 mph 42 % 0.0 in
17:34 28.4 °F 14.2 °F 1014.8 in South 11.1 mph 11.1 mph 42 % 0.0 in
17:39 27.8 °F 13.7 °F 1014.8 in SSW 9.3 mph 9.3 mph 42 % 0.0 in
17:44 27.8 °F 13.3 °F 1014.8 in SW 7.4 mph 7.4 mph 41 % 0.0 in
17:49 27.9 °F 13.4 °F 1014.8 in SSW 13.0 mph 13.0 mph 41 % 0.0 in
17:54 27.8 °F 13.3 °F 1014.8 in WSW 9.7 mph 9.7 mph 41 % 0.0 in
17:55 27.6 °F 13.2 °F 1014.8 in SW 11.4 mph 11.4 mph 41 % 0.0 in
18:00 27.5 °F 13.1 °F 1014.8 in South 13.0 mph 13.0 mph 41 % 0.0 in
18:05 27.3 °F 13.3 °F 1014.8 in SSW 11.1 mph 11.1 mph 42 % 0.0 in
18:06 27.3 °F 13.3 °F 1014.8 in West 9.3 mph 9.3 mph 42 % 0.0 in
18:11 27.6 °F 13.6 °F 1014.8 in SSW 14.8 mph 14.8 mph 42 % 0.0 in
18:16 27.6 °F 13.2 °F 1014.8 in SW 9.3 mph 9.3 mph 41 % 0.0 in
18:21 27.4 °F 13.3 °F 1014.8 in SW 7.4 mph 7.4 mph 42 % 0.0 in
18:26 27.8 °F 13.7 °F 1014.8 in SSE 10.3 mph 10.3 mph 42 % 0.0 in
18:31 27.6 °F 13.6 °F 1014.8 in SW 9.5 mph 9.5 mph 42 % 0.0 in
18:36 27.8 °F 13.7 °F 1014.8 in SW 7.9 mph 7.9 mph 42 % 0.0 in
18:41 27.6 °F 13.2 °F 1014.8 in SSE 9.3 mph 9.3 mph 41 % 0.0 in
18:46 27.6 °F 13.2 °F 1014.8 in SW 5.6 mph 5.6 mph 41 % 0.0 in
18:51 27.5 °F 13.1 °F 1014.8 in WSW 11.1 mph 11.1 mph 41 % 0.0 in
18:56 27.0 °F 12.6 °F 1014.8 in West 5.8 mph 5.8 mph 41 % 0.0 in
19:01 26.7 °F 12.7 °F 1014.8 in SW 9.3 mph 9.3 mph 42 % 0.0 in
19:06 26.4 °F 12.4 °F 1015.8 in SW 12.2 mph 12.2 mph 42 % 0.0 in
19:11 26.1 °F 12.2 °F 1015.8 in WSW 9.3 mph 9.3 mph 42 % 0.0 in
19:16 25.7 °F 11.8 °F 1015.8 in SW 9.3 mph 9.3 mph 42 % 0.0 in
19:21 25.6 °F 12.1 °F 1014.8 in WSW 3.7 mph 3.7 mph 43 % 0.0 in
19:26 25.4 °F 11.9 °F 1014.8 in SW 9.3 mph 9.3 mph 43 % 0.0 in
19:31 25.4 °F 12.3 °F 1014.8 in SW 8.7 mph 8.7 mph 44 % 0.0 in
19:36 25.1 °F 12.0 °F 1015.8 in WSW 5.6 mph 5.6 mph 44 % 0.0 in
19:41 24.8 °F 12.1 °F 1015.8 in SW 5.6 mph 5.6 mph 45 % 0.0 in
19:46 24.6 °F 12.2 °F 1015.8 in SW 5.6 mph 5.6 mph 46 % 0.0 in
19:51 24.4 °F 12.0 °F 1015.8 in SSW 1.9 mph   46 % 0.0 in
19:56 24.3 °F 11.9 °F 1015.8 in ESE 1.9 mph 1.9 mph 46 % 0.0 in
20:01 24.4 °F 12.0 °F 1015.8 in SW 1.9 mph   46 % 0.0 in
20:06 24.3 °F 11.9 °F 1014.8 in SSW 3.7 mph 3.7 mph 46 % 0.0 in
20:11 24.3 °F 12.3 °F 1014.8 in SW 2.6 mph 2.6 mph 47 % 0.0 in
20:13 24.2 °F 12.2 °F 1014.8 in WSW 3.7 mph 3.7 mph 47 % 0.0 in
20:18 24.3 °F 12.3 °F 1014.8 in Calm     47 % 0.0 in
20:23 23.9 °F 11.9 °F 1015.8 in ENE 3.7 mph 3.7 mph 47 % 0.0 in
20:28 23.7 °F 12.7 °F 1015.8 in WSW 11.1 mph 11.1 mph 50 % 0.0 in
20:33 23.6 °F 12.9 °F 1015.8 in NE 3.7 mph 3.7 mph 51 % 0.0 in
20:38 23.5 °F 13.7 °F 1015.8 in ESE 9.3 mph 9.3 mph 54 % 0.0 in
20:43 23.3 °F 14.1 °F 1015.8 in ESE 9.3 mph 9.3 mph 56 % 0.0 in
20:48 23.2 °F 13.9 °F 1015.8 in NNE 7.4 mph 7.4 mph 56 % 0.0 in
20:53 23.0 °F 13.7 °F 1015.8 in ESE 10.3 mph 10.3 mph 56 % 0.0 in
20:58 22.9 °F 13.9 °F 1015.8 in NNE 9.3 mph 9.3 mph 57 % 0.0 in
21:03 22.7 °F 14.0 °F 1015.8 in East 7.4 mph 7.4 mph 58 % 0.0 in
21:06 22.7 °F 14.0 °F 1015.8 in ENE 7.4 mph 7.4 mph 58 % 0.0 in
21:11 22.6 °F 14.2 °F 1015.8 in ENE 7.4 mph 7.4 mph 59 % 0.0 in
21:16 22.5 °F 14.1 °F 1015.8 in ESE 3.7 mph 3.7 mph 59 % 0.0 in
21:21 22.4 °F 14.3 °F 1015.8 in ENE 5.6 mph 5.6 mph 60 % 0.0 in
21:26 22.4 °F 14.3 °F 1015.8 in SE 3.7 mph 3.7 mph 60 % 0.0 in
21:31 22.2 °F 14.1 °F 1015.8 in SSE 7.4 mph 7.4 mph 60 % 0.0 in
21:36 22.2 °F 14.1 °F 1015.8 in ENE 4.7 mph 4.7 mph 60 % 0.0 in
21:41 22.1 °F 13.9 °F 1015.8 in ESE 3.7 mph 3.7 mph 60 % 0.0 in
21:46 22.0 °F 13.9 °F 1015.8 in SSW 2.3 mph 2.3 mph 60 % 0.0 in
21:47 22.0 °F 13.9 °F 1015.8 in SSW 1.9 mph   60 % 0.0 in
21:52 21.9 °F 14.1 °F 1015.8 in SW 1.4 mph   61 % 0.0 in
21:57 21.8 °F 13.9 °F 1015.8 in WSW 4.2 mph 4.2 mph 61 % 0.0 in
22:02 21.8 °F 13.9 °F 1015.8 in WSW 3.7 mph 3.7 mph 61 % 0.0 in
22:07 21.7 °F 14.1 °F 1015.8 in SW 3.7 mph 3.7 mph 62 % 0.0 in
22:12 21.6 °F 13.8 °F 1015.8 in SSW 3.7 mph 3.7 mph 61 % 0.0 in
22:17 21.4 °F 13.6 °F 1015.8 in WSW 9.3 mph 9.3 mph 61 % 0.0 in
22:22 21.3 °F 13.7 °F 1016.8 in West 5.6 mph 5.6 mph 62 % 0.0 in
22:27 21.4 °F 13.6 °F 1016.8 in WSW 5.6 mph 5.6 mph 61 % 0.0 in
22:32 21.4 °F 13.6 °F 1016.8 in SW 4.2 mph 4.2 mph 61 % 0.0 in
22:37 21.4 °F 13.3 °F 1016.8 in WSW 5.6 mph 5.6 mph 60 % 0.0 in
22:42 21.3 °F 13.2 °F 1016.8 in SW 6.1 mph 6.1 mph 60 % 0.0 in
22:47 21.2 °F 13.1 °F 1016.8 in West 5.6 mph 5.6 mph 60 % 0.0 in
22:52 21.2 °F 13.1 °F 1016.8 in SSW 3.7 mph 3.7 mph 60 % 0.0 in
22:57 21.2 °F 13.1 °F 1016.8 in WSW 3.9 mph 3.9 mph 60 % 0.0 in
23:02 21.2 °F 13.1 °F 1016.8 in WSW 4.7 mph 4.7 mph 60 % 0.0 in
23:07 21.1 °F 13.3 °F 1015.8 in SW 2.3 mph 2.3 mph 61 % 0.0 in
23:12 21.0 °F 13.2 °F 1015.8 in Calm     61 % 0.0 in
23:17 21.0 °F 13.4 °F 1015.8 in East 5.6 mph 5.6 mph 62 % 0.0 in
23:22 21.1 °F 13.3 °F 1015.8 in ENE 3.7 mph 3.7 mph 61 % 0.0 in
23:27 21.0 °F 13.4 °F 1015.8 in ENE 1.9 mph   62 % 0.0 in
23:32 21.1 °F 13.6 °F 1015.8 in ENE 1.9 mph 1.9 mph 62 % 0.0 in
23:37 21.1 °F 13.6 °F 1015.8 in Calm     62 % 0.0 in
23:42 21.0 °F 13.4 °F 1015.8 in Calm     62 % 0.0 in
23:47 21.0 °F 13.4 °F 1015.8 in SW 3.7 mph 3.7 mph 62 % 0.0 in
23:52 20.9 °F 13.3 °F 1015.8 in WSW 3.7 mph 3.7 mph 62 % 0.0 in
23:57 20.8 °F 13.3 °F 1015.8 in WSW 3.7 mph 3.7 mph 62 % 0.0 in
Meteo Sesrovires
Elogis d' Weather Underground - 3.75 mb

Guio original per  Jim McMurry - jmcmurry@mwt.net Adaptat per a la plantilla per  Wim van der Kuil - Leuven-Template.eu

Trobareu la nostra informacio del temps tambe a:

Weather Underground

AWEKAS